createdAt,value
2023-04-02T00:02:13.865Z,99708.16
2023-04-02T00:04:42.090Z,99704.00
2023-04-02T00:07:10.273Z,99708.38
2023-04-02T00:09:38.619Z,99712.47
2023-04-02T00:12:06.589Z,99723.03
2023-04-02T00:14:35.840Z,99731.19
2023-04-02T00:17:03.822Z,99725.97
2023-04-02T00:19:31.731Z,99734.94
2023-04-02T00:21:59.750Z,99741.41
2023-04-02T00:24:27.900Z,99740.00
2023-04-02T00:26:55.880Z,99741.88
2023-04-02T00:29:24.083Z,99751.88
2023-04-02T00:31:52.085Z,99755.25
2023-04-02T00:34:20.074Z,99751.88
2023-04-02T00:36:48.012Z,99759.53
2023-04-02T00:39:15.950Z,99760.56
2023-04-02T00:41:47.443Z,99763.47
2023-04-02T00:44:15.691Z,99769.75
2023-04-02T00:46:47.397Z,99778.53
2023-04-02T00:49:15.740Z,99776.38
2023-04-02T00:51:43.739Z,99788.53
2023-04-02T00:54:16.042Z,99787.25
2023-04-02T00:56:44.085Z,99794.34
2023-04-02T00:59:12.079Z,99799.94
2023-04-02T01:01:42.789Z,99794.34
2023-04-02T01:04:11.049Z,99796.38
2023-04-02T01:06:39.375Z,99800.97
2023-04-02T01:09:07.377Z,99807.63
2023-04-02T01:11:35.454Z,99821.00
2023-04-02T01:14:03.638Z,99816.22
2023-04-02T01:16:32.213Z,99823.50
2023-04-02T01:19:02.248Z,99833.06
2023-04-02T01:21:30.998Z,99837.16
2023-04-02T01:23:59.119Z,99843.91
2023-04-02T01:26:27.414Z,99836.41
2023-04-02T01:28:55.380Z,99848.47
2023-04-02T01:31:23.443Z,99848.47
2023-04-02T01:33:51.439Z,99855.78
2023-04-02T01:36:19.436Z,99860.53
2023-04-02T01:38:47.435Z,99875.81
2023-04-02T01:41:15.598Z,99871.03
2023-04-02T01:43:43.980Z,99886.81
2023-04-02T01:46:12.160Z,99886.81
2023-04-02T01:48:40.164Z,99888.69
2023-04-02T01:51:08.159Z,99893.44
2023-04-02T01:53:36.164Z,99899.25
2023-04-02T01:56:05.382Z,99901.28
2023-04-02T01:58:33.618Z,99904.56
2023-04-02T02:01:02.804Z,99902.69
2023-04-02T02:03:30.906Z,99907.28
2023-04-02T02:05:58.897Z,99917.09
2023-04-02T02:08:27.469Z,99914.75
2023-04-02T02:10:55.510Z,99920.66
2023-04-02T02:13:23.780Z,99930.16
2023-04-02T02:15:52.260Z,99931.19
2023-04-02T02:18:20.141Z,99932.00
2023-04-02T02:20:48.150Z,99941.50
2023-04-02T02:23:16.203Z,99950.50
2023-04-02T02:25:44.282Z,99944.03
2023-04-02T02:28:12.308Z,99951.31
2023-04-02T02:30:40.420Z,99958.28
2023-04-02T02:33:09.024Z,99967.44
2023-04-02T02:35:37.651Z,99968.81
2023-04-02T02:38:06.520Z,99971.50
2023-04-02T02:40:34.587Z,99974.41
2023-04-02T02:43:02.535Z,99980.69
2023-04-02T02:45:30.632Z,99980.69
2023-04-02T02:47:58.641Z,99995.59
2023-04-02T02:50:26.650Z,99994.25
2023-04-02T02:52:54.794Z,99994.91
2023-04-02T02:55:23.036Z,99999.34
2023-04-02T02:57:50.919Z,100002.75
2023-04-02T03:00:19.980Z,100010.69
2023-04-02T03:02:48.107Z,100015.44
2023-04-02T03:05:16.210Z,100012.91
2023-04-02T03:07:44.211Z,100017.84
2023-04-02T03:10:12.275Z,100028.50
2023-04-02T03:12:40.308Z,100034.75
2023-04-02T03:15:08.436Z,100033.44
2023-04-02T03:17:36.622Z,100040.53
2023-04-02T03:20:06.673Z,100051.38
2023-04-02T03:22:36.151Z,100052.59
2023-04-02T03:25:04.122Z,100054.94
2023-04-02T03:27:32.119Z,100060.72
2023-04-02T03:30:01.872Z,100063.44
2023-04-02T03:32:30.283Z,100074.28
2023-04-02T03:34:58.258Z,100067.84
2023-04-02T03:37:26.166Z,100078.03
2023-04-02T03:39:54.114Z,100079.38
2023-04-02T03:42:22.119Z,100081.91
2023-04-02T03:44:50.313Z,100098.34
2023-04-02T03:47:18.501Z,100097.16
2023-04-02T03:49:46.525Z,100107.66
2023-04-02T03:52:14.485Z,100108.53
2023-04-02T03:54:53.151Z,100113.94
2023-04-02T03:57:22.884Z,100119.38
2023-04-02T03:59:51.598Z,100126.81
2023-04-02T04:02:19.645Z,100132.59
2023-04-02T04:04:47.689Z,100135.94
2023-04-02T04:07:15.756Z,100135.94
2023-04-02T04:09:43.795Z,100144.78
2023-04-02T04:12:13.465Z,100155.97
2023-04-02T04:14:42.783Z,100165.97
2023-04-02T04:17:14.143Z,100173.94
2023-04-02T04:19:42.088Z,100179.84
2023-04-02T04:22:09.892Z,100186.47
2023-04-02T04:24:39.418Z,100196.47
2023-04-02T04:27:09.685Z,100204.25
2023-04-02T04:29:40.890Z,100207.84
2023-04-02T04:32:08.862Z,100214.25
2023-04-02T04:34:42.349Z,100217.16
2023-04-02T04:37:10.275Z,100228.00
2023-04-02T04:39:38.085Z,100224.44
2023-04-02T04:42:05.960Z,100234.44
2023-04-02T04:44:33.979Z,100238.97
2023-04-02T04:47:01.950Z,100250.50
2023-04-02T04:49:29.733Z,100257.66
2023-04-02T04:51:57.674Z,100253.06
2023-04-02T04:54:25.515Z,100268.66
2023-04-02T04:56:53.402Z,100275.78
2023-04-02T04:59:23.624Z,100274.41
2023-04-02T05:01:51.572Z,100281.88
2023-04-02T05:04:19.444Z,100287.47
2023-04-02T05:06:47.343Z,100291.53
2023-04-02T05:09:15.307Z,100298.91
2023-04-02T05:11:43.033Z,100305.25
2023-04-02T05:14:10.937Z,100307.31
2023-04-02T05:16:38.863Z,100318.38
2023-04-02T05:19:06.788Z,100326.31
2023-04-02T05:21:34.810Z,100325.94
2023-04-02T05:24:02.617Z,100336.88
2023-04-02T05:26:30.465Z,100335.81
2023-04-02T05:28:58.449Z,100345.94
2023-04-02T05:31:26.726Z,100351.69
2023-04-02T05:33:54.514Z,100357.69
2023-04-02T05:36:22.328Z,100366.75
2023-04-02T05:38:51.295Z,100368.38
2023-04-02T05:41:19.042Z,100373.38
2023-04-02T05:43:49.043Z,100378.66
2023-04-02T05:46:17.047Z,100382.75
2023-04-02T05:48:44.864Z,100387.72
2023-04-02T05:51:12.617Z,100393.31
2023-04-02T05:53:40.682Z,100403.03
2023-04-02T05:56:08.501Z,100406.91
2023-04-02T05:58:37.232Z,100411.09
2023-04-02T06:01:05.226Z,100412.75
2023-04-02T06:03:33.102Z,100415.97
2023-04-02T06:06:00.973Z,100412.97
2023-04-02T06:08:28.752Z,100422.97
2023-04-02T06:10:56.757Z,100427.44
2023-04-02T06:13:24.609Z,100437.31
2023-04-02T06:15:52.443Z,100429.84
2023-04-02T06:18:20.497Z,100432.75
2023-04-02T06:20:48.354Z,100444.13
2023-04-02T06:23:16.203Z,100449.34
2023-04-02T06:25:44.066Z,100451.66
2023-04-02T06:28:11.968Z,100458.53
2023-04-02T06:30:39.823Z,100471.97
2023-04-02T06:33:09.061Z,100470.47
2023-04-02T06:35:37.324Z,100479.13
2023-04-02T06:38:05.535Z,100483.75
2023-04-02T06:40:33.448Z,100489.81
2023-04-02T06:43:01.344Z,100497.13
2023-04-02T06:45:29.314Z,100502.38
2023-04-02T06:47:57.226Z,100503.22
2023-04-02T06:50:25.146Z,100509.88
2023-04-02T06:52:52.992Z,100510.53
2023-04-02T06:55:20.785Z,100524.81
2023-04-02T06:57:48.720Z,100529.38
2023-04-02T07:00:16.611Z,100534.81
2023-04-02T07:02:44.443Z,100542.28
2023-04-02T07:05:12.633Z,100551.47
2023-04-02T07:07:40.530Z,100553.34
2023-04-02T07:10:09.261Z,100555.91
2023-04-02T07:12:37.105Z,100563.16
2023-04-02T07:15:05.096Z,100566.66
2023-04-02T07:17:33.030Z,100569.34
2023-04-02T07:20:00.922Z,100561.47
2023-04-02T07:22:31.759Z,100566.22
2023-04-02T07:24:59.742Z,100572.31
2023-04-02T07:27:28.043Z,100577.59
2023-04-02T07:29:56.020Z,100577.47
2023-04-02T07:32:23.812Z,100583.13
2023-04-02T07:34:51.725Z,100595.03
2023-04-02T07:37:19.513Z,100595.06
2023-04-02T07:39:47.289Z,100608.69
2023-04-02T07:42:17.946Z,100611.22
2023-04-02T07:44:45.713Z,100618.72
2023-04-02T07:47:13.461Z,100618.91
2023-04-02T07:49:41.811Z,100619.59
2023-04-02T07:52:09.624Z,100621.97
2023-04-02T07:54:38.289Z,100624.69
2023-04-02T07:57:06.208Z,100633.69
2023-04-02T07:59:34.106Z,100641.84
2023-04-02T08:02:02.512Z,100629.44
2023-04-02T08:04:33.182Z,100638.28
2023-04-02T08:07:01.651Z,100639.97
2023-04-02T08:09:29.689Z,100653.22
2023-04-02T08:11:57.488Z,100656.81
2023-04-02T08:14:25.378Z,100657.84
2023-04-02T08:16:53.267Z,100670.38
2023-04-02T08:19:21.077Z,100681.38
2023-04-02T08:21:52.943Z,100683.91
2023-04-02T08:24:20.855Z,100694.59
2023-04-02T08:26:48.719Z,100690.69
2023-04-02T08:29:16.560Z,100699.50
2023-04-02T08:31:44.323Z,100694.72
2023-04-02T08:34:12.155Z,100704.03
2023-04-02T08:36:39.986Z,100702.16
2023-04-02T08:39:11.674Z,100710.31
2023-04-02T08:41:39.556Z,100720.47
2023-04-02T08:44:07.446Z,100729.28
2023-04-02T08:46:35.534Z,100729.13
2023-04-02T08:49:03.724Z,100738.47
2023-04-02T08:51:31.537Z,100733.84
2023-04-02T08:53:59.303Z,100729.97
2023-04-02T08:56:27.156Z,100740.13
2023-04-02T08:58:56.042Z,100738.72
2023-04-02T09:01:24.333Z,100738.06
2023-04-02T09:03:52.305Z,100740.44
2023-04-02T09:06:20.121Z,100745.19
2023-04-02T09:08:47.902Z,100748.59
2023-04-02T09:11:17.390Z,100753.84
2023-04-02T09:13:46.619Z,100756.56
2023-04-02T09:16:14.712Z,100760.81
2023-04-02T09:18:42.599Z,100762.88
2023-04-02T09:21:10.433Z,100780.84
2023-04-02T09:23:38.199Z,100767.97
2023-04-02T09:26:06.002Z,100777.09
2023-04-02T09:28:36.371Z,100780.16
2023-04-02T09:31:06.249Z,100781.69
2023-04-02T09:33:34.788Z,100796.28
2023-04-02T09:36:02.810Z,100791.72
2023-04-02T09:38:31.794Z,100794.44
2023-04-02T09:40:59.710Z,100797.84
2023-04-02T09:43:27.485Z,100801.72
2023-04-02T09:45:55.366Z,100809.03
2023-04-02T09:48:23.273Z,100815.78
2023-04-02T09:50:51.200Z,100816.28
2023-04-02T09:53:18.955Z,100814.28
2023-04-02T09:55:46.836Z,100827.00
2023-04-02T09:58:17.533Z,100825.97
2023-04-02T10:00:45.679Z,100835.84
2023-04-02T10:03:13.724Z,100832.81
2023-04-02T10:05:43.273Z,100835.00
2023-04-02T10:08:11.342Z,100841.97
2023-04-02T10:10:39.263Z,100851.66
2023-04-02T10:13:07.094Z,100850.78
2023-04-02T10:15:35.188Z,100851.47
2023-04-02T10:18:07.730Z,100850.50
2023-04-02T10:20:41.715Z,100849.63
2023-04-02T10:23:16.660Z,100856.59
2023-04-02T10:25:44.447Z,100868.34
2023-04-02T10:28:15.538Z,100865.25
2023-04-02T10:30:43.423Z,100868.63
2023-04-02T10:33:11.202Z,100870.81
2023-04-02T10:35:41.393Z,100880.00
2023-04-02T10:38:13.751Z,100883.56
2023-04-02T10:40:41.581Z,100890.16
2023-04-02T10:43:09.375Z,100889.44
2023-04-02T10:45:37.559Z,100893.72
2023-04-02T10:48:05.878Z,100896.56
2023-04-02T10:50:33.983Z,100901.63
2023-04-02T10:53:01.789Z,100899.47
2023-04-02T10:55:29.576Z,100899.47
2023-04-02T10:57:57.318Z,100899.47
2023-04-02T11:00:25.131Z,100912.41
2023-04-02T11:02:53.038Z,100907.16
2023-04-02T11:05:20.953Z,100906.25
2023-04-02T11:07:49.074Z,100914.59
2023-04-02T11:10:23.678Z,100919.00
2023-04-02T11:12:51.624Z,100918.00
2023-04-02T11:15:19.490Z,100927.16
2023-04-02T11:17:47.343Z,100921.72
2023-04-02T11:20:17.811Z,100933.41
2023-04-02T11:22:47.503Z,100940.34
2023-04-02T11:25:15.603Z,100941.38
2023-04-02T11:27:48.935Z,100944.22
2023-04-02T11:30:19.268Z,100940.34
2023-04-02T11:32:49.353Z,100946.63
2023-04-02T11:35:17.300Z,100944.06
2023-04-02T11:37:45.254Z,100945.63
2023-04-02T11:40:14.069Z,100954.75
2023-04-02T11:42:42.082Z,100955.78
2023-04-02T11:45:09.863Z,100954.84
2023-04-02T11:47:37.977Z,100962.16
2023-04-02T11:50:05.943Z,100956.91
2023-04-02T11:52:33.965Z,100962.94
2023-04-02T11:55:01.748Z,100967.44
2023-04-02T11:57:30.747Z,100970.00
2023-04-02T11:59:58.574Z,100965.31
2023-04-02T12:02:26.532Z,100970.22
2023-04-02T12:04:54.377Z,100977.69
2023-04-02T12:07:22.350Z,100975.66
2023-04-02T12:09:50.160Z,100985.69
2023-04-02T12:12:17.952Z,100989.09
2023-04-02T12:14:48.885Z,100983.28
2023-04-02T12:17:16.826Z,100985.66
2023-04-02T12:19:44.623Z,100989.88
2023-04-02T12:22:12.526Z,100996.59
2023-04-02T12:24:40.323Z,100998.56
2023-04-02T12:27:08.916Z,100992.75
2023-04-02T12:29:39.041Z,100995.75
2023-04-02T12:32:07.036Z,100993.38
2023-04-02T12:34:34.846Z,100999.28
2023-04-02T12:37:03.810Z,101008.69
2023-04-02T12:39:31.748Z,101015.28
2023-04-02T12:42:01.263Z,101017.69
2023-04-02T12:44:29.059Z,101016.00
2023-04-02T12:47:00.570Z,101017.38
2023-04-02T12:49:28.503Z,101017.25
2023-04-02T12:51:56.310Z,101015.03
2023-04-02T12:54:24.182Z,101008.75
2023-04-02T12:56:51.997Z,101016.06
2023-04-02T12:59:19.789Z,101016.06
2023-04-02T13:01:47.706Z,101018.28
2023-04-02T13:04:16.090Z,101021.16
2023-04-02T13:06:44.224Z,101016.41
2023-04-02T13:09:11.982Z,101023.38
2023-04-02T13:11:40.248Z,101029.69
2023-04-02T13:14:07.992Z,101033.41
2023-04-02T13:16:35.933Z,101029.81
2023-04-02T13:19:05.808Z,101032.38
2023-04-02T13:21:33.646Z,101036.78
2023-04-02T13:24:01.439Z,101037.59
2023-04-02T13:26:29.217Z,101036.72
2023-04-02T13:28:57.233Z,101034.66
2023-04-02T13:31:25.135Z,101045.47
2023-04-02T13:33:52.988Z,101053.63
2023-04-02T13:36:23.153Z,101048.31
2023-04-02T13:38:51.203Z,101053.09
2023-04-02T13:41:19.016Z,101056.53
2023-04-02T13:43:46.851Z,101059.25
2023-04-02T13:46:14.796Z,101060.91
2023-04-02T13:48:42.688Z,101061.03
2023-04-02T13:51:10.527Z,101056.19
2023-04-02T13:53:38.275Z,101062.50
2023-04-02T13:56:06.486Z,101058.03
2023-04-02T13:58:34.268Z,101067.09
2023-04-02T14:01:02.197Z,101062.81
2023-04-02T14:03:29.983Z,101064.16
2023-04-02T14:05:58.316Z,101072.97
2023-04-02T14:08:26.078Z,101075.66
2023-04-02T14:10:54.475Z,101074.09
2023-04-02T14:13:22.321Z,101076.50
2023-04-02T14:15:50.323Z,101077.00
2023-04-02T14:18:18.140Z,101075.44
2023-04-02T14:20:46.178Z,101079.69
2023-04-02T14:23:14.083Z,101077.13
2023-04-02T14:25:41.954Z,101084.63
2023-04-02T14:28:11.778Z,101080.88
2023-04-02T14:30:39.936Z,101090.19
2023-04-02T14:33:07.915Z,101094.75
2023-04-02T14:35:35.853Z,101090.81
2023-04-02T14:38:03.799Z,101102.34
2023-04-02T14:40:34.852Z,101090.44
2023-04-02T14:43:03.015Z,101089.69
2023-04-02T14:45:30.828Z,101097.34
2023-04-02T14:48:01.545Z,101104.59
2023-04-02T14:50:29.440Z,101104.31
2023-04-02T14:52:57.234Z,101102.84
2023-04-02T14:55:26.222Z,101102.97
2023-04-02T14:57:57.588Z,101110.50
2023-04-02T15:00:25.369Z,101101.97
2023-04-02T15:02:53.205Z,101115.75
2023-04-02T15:05:21.257Z,101116.63
2023-04-02T15:07:49.065Z,101126.69
2023-04-02T15:10:16.952Z,101123.09
2023-04-02T15:12:44.714Z,101124.94
2023-04-02T15:15:12.577Z,101116.28
2023-04-02T15:17:40.556Z,101130.09
2023-04-02T15:20:08.546Z,101126.84
2023-04-02T15:22:36.377Z,101130.75
2023-04-02T15:25:04.247Z,101134.84
2023-04-02T15:27:32.988Z,101132.38
2023-04-02T15:30:00.826Z,101135.59
2023-04-02T15:32:28.621Z,101134.91
2023-04-02T15:34:56.477Z,101146.47
2023-04-02T15:37:24.328Z,101155.31
2023-04-02T15:39:55.450Z,101154.75
2023-04-02T15:42:23.296Z,101156.59
2023-04-02T15:44:51.225Z,101165.47
2023-04-02T15:47:21.993Z,101152.00
2023-04-02T15:49:49.804Z,101158.13
2023-04-02T15:52:17.547Z,101156.34
2023-04-02T15:54:45.321Z,101163.53
2023-04-02T15:57:13.258Z,101161.63
2023-04-02T15:59:41.106Z,101163.13
2023-04-02T16:02:08.937Z,101158.81
2023-04-02T16:04:36.896Z,101170.03
2023-04-02T16:07:04.878Z,101159.16
2023-04-02T16:09:32.978Z,101168.94
2023-04-02T16:12:00.837Z,101180.31
2023-04-02T16:14:28.760Z,101174.66
2023-04-02T16:16:56.658Z,101180.75
2023-04-02T16:19:24.566Z,101174.19
2023-04-02T16:21:52.758Z,101192.03
2023-04-02T16:24:20.633Z,101182.63
2023-04-02T16:26:48.653Z,101186.66
2023-04-02T16:29:16.811Z,101196.72
2023-04-02T16:31:44.607Z,101189.00
2023-04-02T16:34:12.440Z,101196.31
2023-04-02T16:36:40.497Z,101199.75
2023-04-02T16:39:08.378Z,101206.88
2023-04-02T16:41:36.179Z,101204.50
2023-04-02T16:44:04.081Z,101211.28
2023-04-02T16:46:38.802Z,101215.81
2023-04-02T16:49:07.420Z,101215.47
2023-04-02T16:51:35.289Z,101223.84
2023-04-02T16:54:03.244Z,101215.47
2023-04-02T16:56:31.139Z,101227.50
2023-04-02T16:58:59.372Z,101232.44
2023-04-02T17:01:27.279Z,101233.84
2023-04-02T17:03:55.241Z,101233.84
2023-04-02T17:06:23.176Z,101237.78
2023-04-02T17:08:51.129Z,101249.22
2023-04-02T17:11:19.104Z,101240.34
2023-04-02T17:13:47.048Z,101242.56
2023-04-02T17:16:15.242Z,101246.16
2023-04-02T17:18:43.204Z,101246.50
2023-04-02T17:21:11.227Z,101251.94
2023-04-02T17:23:46.235Z,101258.72
2023-04-02T17:26:23.510Z,101262.63
2023-04-02T17:28:51.725Z,101259.06
2023-04-02T17:31:19.749Z,101255.63
2023-04-02T17:33:47.732Z,101262.28
2023-04-02T17:36:15.656Z,101265.50
2023-04-02T17:38:43.554Z,101266.00
2023-04-02T17:41:11.534Z,101274.69
2023-04-02T17:43:39.502Z,101268.00
2023-04-02T17:46:07.538Z,101274.06
2023-04-02T17:48:35.884Z,101273.00
2023-04-02T17:51:03.965Z,101282.53
2023-04-02T17:53:31.890Z,101285.22
2023-04-02T17:55:59.955Z,101286.41
2023-04-02T17:58:27.953Z,101290.44
2023-04-02T18:00:56.006Z,101289.09
2023-04-02T18:03:26.875Z,101293.50
2023-04-02T18:05:56.835Z,101296.44
2023-04-02T18:08:26.049Z,101301.47
2023-04-02T18:10:54.084Z,101307.56
2023-04-02T18:13:22.154Z,101311.63
2023-04-02T18:15:50.103Z,101319.66
2023-04-02T18:18:18.296Z,101315.72
2023-04-02T18:20:46.290Z,101330.69
2023-04-02T18:23:14.343Z,101326.25
2023-04-02T18:25:42.925Z,101335.19
2023-04-02T18:28:11.075Z,101330.72
2023-04-02T18:30:39.411Z,101331.03
2023-04-02T18:33:07.680Z,101334.94
2023-04-02T18:35:36.011Z,101338.13
2023-04-02T18:38:04.086Z,101340.13
2023-04-02T18:40:32.140Z,101339.59
2023-04-02T18:43:00.146Z,101342.84
2023-04-02T18:45:28.291Z,101350.88
2023-04-02T18:47:56.254Z,101358.16
2023-04-02T18:50:24.230Z,101353.44
2023-04-02T18:52:52.450Z,101360.59
2023-04-02T18:55:20.482Z,101367.22
2023-04-02T18:57:48.519Z,101380.97
2023-04-02T19:00:16.486Z,101380.25
2023-04-02T19:02:44.533Z,101385.00
2023-04-02T19:05:12.540Z,101388.84
2023-04-02T19:07:40.465Z,101392.72
2023-04-02T19:10:08.430Z,101393.91
2023-04-02T19:12:36.374Z,101394.69
2023-04-02T19:15:04.404Z,101396.41
2023-04-02T19:17:32.307Z,101402.59
2023-04-02T19:20:00.265Z,101413.22
2023-04-02T19:22:29.688Z,101409.25
2023-04-02T19:24:58.007Z,101407.03
2023-04-02T19:27:25.957Z,101411.34
2023-04-02T19:29:54.060Z,101420.50
2023-04-02T19:32:23.251Z,101421.81
2023-04-02T19:34:51.218Z,101414.84
2023-04-02T19:37:19.446Z,101425.00
2023-04-02T19:39:47.964Z,101426.47
2023-04-02T19:42:16.206Z,101425.88
2023-04-02T19:44:44.414Z,101429.06
2023-04-02T19:47:14.377Z,101437.53
2023-04-02T19:49:42.447Z,101437.53
2023-04-02T19:52:10.520Z,101444.97
2023-04-02T19:54:38.949Z,101437.97
2023-04-02T19:57:07.234Z,101443.56
2023-04-02T19:59:35.244Z,101446.03
2023-04-02T20:02:06.677Z,101453.47
2023-04-02T20:04:34.708Z,101447.19
2023-04-02T20:07:02.679Z,101456.19
2023-04-02T20:09:31.001Z,101455.59
2023-04-02T20:11:58.985Z,101463.75
2023-04-02T20:14:27.058Z,101465.78
2023-04-02T20:16:55.032Z,101467.75
2023-04-02T20:19:23.138Z,101467.75
2023-04-02T20:21:52.205Z,101478.63
2023-04-02T20:24:20.379Z,101474.47
2023-04-02T20:26:51.099Z,101474.63
2023-04-02T20:29:19.048Z,101486.66
2023-04-02T20:31:47.403Z,101486.06
2023-04-02T20:34:15.596Z,101489.94
2023-04-02T20:36:43.720Z,101496.38
2023-04-02T20:39:17.731Z,101495.53
2023-04-02T20:41:45.636Z,101506.53
2023-04-02T20:44:13.737Z,101500.13
2023-04-02T20:46:41.750Z,101501.41
2023-04-02T20:49:09.717Z,101505.13
2023-04-02T20:51:37.816Z,101513.41
2023-04-02T20:54:05.879Z,101512.13
2023-04-02T20:56:33.780Z,101524.28
2023-04-02T20:59:01.793Z,101520.41
2023-04-02T21:01:30.047Z,101514.84
2023-04-02T21:03:58.254Z,101518.56
2023-04-02T21:06:26.126Z,101527.72
2023-04-02T21:08:54.076Z,101531.88
2023-04-02T21:11:22.837Z,101534.88
2023-04-02T21:13:50.957Z,101536.44
2023-04-02T21:16:19.371Z,101536.56
2023-04-02T21:18:47.337Z,101540.13
2023-04-02T21:21:15.650Z,101545.72
2023-04-02T21:23:43.546Z,101545.31
2023-04-02T21:26:11.878Z,101553.16
2023-04-02T21:28:39.764Z,101552.31
2023-04-02T21:31:07.793Z,101548.88
2023-04-02T21:33:35.844Z,101554.59
2023-04-02T21:36:03.781Z,101552.00
2023-04-02T21:38:31.821Z,101556.28
2023-04-02T21:41:00.058Z,101563.72
2023-04-02T21:43:28.008Z,101560.03
2023-04-02T21:45:56.302Z,101566.88
2023-04-02T21:48:24.273Z,101562.59
2023-04-02T21:50:52.343Z,101568.03
2023-04-02T21:53:20.260Z,101565.59
2023-04-02T21:55:48.691Z,101567.28
2023-04-02T21:58:16.698Z,101566.28
2023-04-02T22:00:44.843Z,101575.44
2023-04-02T22:03:18.496Z,101580.31
2023-04-02T22:05:53.001Z,101580.44
2023-04-02T22:08:20.954Z,101582.44
2023-04-02T22:10:49.002Z,101585.13
2023-04-02T22:13:16.916Z,101583.56
2023-04-02T22:15:44.842Z,101592.56
2023-04-02T22:18:12.793Z,101586.00
2023-04-02T22:20:40.744Z,101590.56
2023-04-02T22:23:09.204Z,101592.31
2023-04-02T22:25:37.175Z,101591.69
2023-04-02T22:28:05.109Z,101595.44
2023-04-02T22:30:33.172Z,101592.84
2023-04-02T22:33:01.299Z,101598.00
2023-04-02T22:35:30.522Z,101598.84
2023-04-02T22:37:58.699Z,101595.41
2023-04-02T22:40:26.653Z,101603.25
2023-04-02T22:42:54.696Z,101600.53
2023-04-02T22:45:22.736Z,101598.84
2023-04-02T22:47:50.770Z,101600.69
2023-04-02T22:50:18.794Z,101610.53
2023-04-02T22:52:46.903Z,101608.97
2023-04-02T22:55:15.529Z,101612.97
2023-04-02T22:57:43.659Z,101607.66
2023-04-02T23:00:12.361Z,101610.66
2023-04-02T23:02:40.773Z,101609.81
2023-04-02T23:05:08.785Z,101616.22
2023-04-02T23:07:36.823Z,101618.94
2023-04-02T23:10:05.921Z,101618.81
2023-04-02T23:12:33.932Z,101621.38
2023-04-02T23:15:02.276Z,101624.38
2023-04-02T23:17:30.256Z,101632.78
2023-04-02T23:19:58.256Z,101624.66
2023-04-02T23:22:26.292Z,101624.66
2023-04-02T23:24:54.709Z,101629.22
2023-04-02T23:27:23.668Z,101630.44
2023-04-02T23:29:51.877Z,101640.19
2023-04-02T23:32:19.817Z,101633.31
2023-04-02T23:34:47.964Z,101639.44
2023-04-02T23:37:16.674Z,101643.16
2023-04-02T23:39:44.620Z,101647.84
2023-04-02T23:42:13.155Z,101645.53
2023-04-02T23:44:44.068Z,101638.97
2023-04-02T23:47:11.996Z,101644.16
2023-04-02T23:49:39.949Z,101638.84
2023-04-02T23:52:07.831Z,101642.44
2023-04-02T23:54:35.870Z,101643.44
2023-04-02T23:57:03.860Z,101639.13
2023-04-02T23:59:31.814Z,101645.41
